METAR LSZS 170650Z VRB01KT 9999 FEW010 08/07 Q1024 RMK C=